Time;durP1;ratioP1;P1;durP2;ratioP2;P2;SDS_P1;SDS_P2;PMS_P1;PMS_P2;Temp;Humidity;BMP_temperature;BMP_pressure;BME280_temperature;BME280_humidity;BME280_pressure;Samples;Min_cycle;Max_cycle;Signal;HPM_P1;HPM_P2
2023/04/19 00:00:18;;;;;;;17.43;12.97;;;10.80;99.90;;;;;;5035903;28;20177;-52
2023/04/19 00:02:44;;;;;;;17.57;13.30;;;10.80;99.90;;;;;;5035751;28;20331;-52
2023/04/19 00:05:12;;;;;;;18.00;12.70;;;10.80;99.90;;;;;;5035797;28;20267;-54
2023/04/19 00:07:37;;;;;;;13.90;12.20;;;10.80;99.90;;;;;;5035508;28;20181;-51
2023/04/19 00:10:03;;;;;;;17.87;12.53;;;10.80;99.90;;;;;;5035470;28;20311;-53
2023/04/19 00:12:29;;;;;;;16.10;12.53;;;10.80;99.90;;;;;;5035320;28;20245;-52
2023/04/19 00:14:55;;;;;;;16.93;13.47;;;10.80;99.90;;;;;;5035391;28;20280;-52
2023/04/19 00:17:21;;;;;;;18.00;13.63;;;10.80;99.90;;;;;;5037223;28;20173;-51
2023/04/19 00:19:47;;;;;;;14.97;13.10;;;10.80;99.90;;;;;;5038502;28;20256;-53
2023/04/19 00:22:12;;;;;;;14.43;12.23;;;10.80;99.90;;;;;;5036026;28;20644;-52
2023/04/19 00:24:38;;;;;;;15.77;13.00;;;10.70;99.90;;;;;;5035429;28;20268;-52
2023/04/19 00:27:03;;;;;;;15.50;12.70;;;10.70;99.90;;;;;;5034246;28;20173;-52
2023/04/19 00:29:29;;;;;;;16.50;12.20;;;10.80;99.90;;;;;;5035284;28;20185;-51
2023/04/19 00:31:55;;;;;;;14.73;12.03;;;10.70;99.90;;;;;;5035157;28;20201;-52
2023/04/19 00:34:20;;;;;;;15.80;10.90;;;10.70;99.90;;;;;;5035148;28;20213;-51
2023/04/19 00:36:46;;;;;;;16.37;13.83;;;10.70;99.90;;;;;;5034882;28;20191;-52
2023/04/19 00:39:11;;;;;;;14.33;12.83;;;10.70;99.90;;;;;;5035076;28;20326;-50
2023/04/19 00:41:37;;;;;;;18.13;12.90;;;10.70;99.90;;;;;;5035001;28;20220;-50
2023/04/19 00:44:03;;;;;;;17.10;12.70;;;10.70;99.90;;;;;;5035012;28;20185;-54
2023/04/19 00:46:28;;;;;;;19.03;12.60;;;10.70;99.90;;;;;;5035119;28;20571;-48
2023/04/19 00:48:54;;;;;;;16.77;12.73;;;10.70;99.90;;;;;;5034705;28;20203;-47
2023/04/19 00:51:20;;;;;;;15.27;12.73;;;10.70;99.90;;;;;;5034829;28;20204;-47
2023/04/19 00:53:46;;;;;;;18.67;13.43;;;10.70;99.90;;;;;;5034493;28;20258;-49
2023/04/19 00:56:13;;;;;;;18.20;13.03;;;10.70;99.90;;;;;;5034494;28;20179;-46
2023/04/19 00:58:39;;;;;;;17.33;13.33;;;10.70;99.90;;;;;;5034718;28;20181;-47
2023/04/19 01:01:05;;;;;;;15.47;12.27;;;10.70;99.90;;;;;;5034684;28;20177;-47
2023/04/19 01:03:31;;;;;;;15.53;12.30;;;10.70;99.90;;;;;;5034583;28;20664;-47
2023/04/19 01:05:56;;;;;;;18.77;13.80;;;10.70;99.90;;;;;;5034674;28;20185;-47
2023/04/19 01:08:23;;;;;;;18.23;13.70;;;10.70;99.90;;;;;;5034345;28;20608;-48
2023/04/19 01:10:48;;;;;;;17.27;13.97;;;10.70;99.90;;;;;;5034478;28;20184;-48
2023/04/19 01:13:14;;;;;;;16.00;13.30;;;10.70;99.90;;;;;;5034092;28;20209;-47
2023/04/19 01:15:39;;;;;;;19.03;13.40;;;10.70;99.90;;;;;;5034095;28;20630;-47
2023/04/19 01:18:05;;;;;;;17.63;13.30;;;10.70;99.90;;;;;;5034108;28;20188;-46
2023/04/19 01:20:31;;;;;;;16.20;13.17;;;10.60;99.90;;;;;;5016349;28;20208;-48
2023/04/19 01:22:56;;;;;;;17.30;13.70;;;10.70;99.90;;;;;;5033911;28;20278;-48
2023/04/19 01:25:22;;;;;;;18.60;13.83;;;10.70;99.90;;;;;;5033996;28;20177;-48
2023/04/19 01:27:47;;;;;;;16.93;13.63;;;10.70;99.90;;;;;;5016633;28;20235;-48
2023/04/19 01:30:13;;;;;;;18.17;13.30;;;10.70;99.90;;;;;;5034090;28;20197;-46
2023/04/19 01:32:39;;;;;;;17.70;14.40;;;10.60;99.90;;;;;;5033743;28;20694;-48
2023/04/19 01:35:05;;;;;;;15.23;13.33;;;10.70;99.90;;;;;;5033975;28;20197;-47
2023/04/19 01:37:34;;;;;;;17.70;13.23;;;10.60;99.90;;;;;;5034058;28;20176;-46
2023/04/19 01:40:00;;;;;;;18.57;13.20;;;10.70;99.90;;;;;;5034017;28;20171;-49
2023/04/19 01:42:25;;;;;;;17.13;13.20;;;10.60;99.90;;;;;;5033906;28;20189;-46
2023/04/19 01:44:51;;;;;;;20.00;13.17;;;10.60;99.90;;;;;;5033907;28;20662;-47
2023/04/19 01:47:16;;;;;;;17.63;12.17;;;10.70;99.90;;;;;;5034201;28;20180;-46
2023/04/19 01:49:42;;;;;;;15.73;13.53;;;10.60;99.90;;;;;;5033497;28;20200;-47
2023/04/19 01:52:07;;;;;;;18.47;12.97;;;10.60;99.90;;;;;;5033409;28;20205;-47
2023/04/19 01:54:33;;;;;;;19.07;13.10;;;10.50;99.90;;;;;;5015790;28;20209;-48
2023/04/19 01:56:58;;;;;;;18.27;13.47;;;10.50;99.90;;;;;;5033998;28;20168;-49
2023/04/19 01:59:24;;;;;;;16.47;13.20;;;10.50;99.90;;;;;;5033712;28;20251;-47
2023/04/19 02:01:50;;;;;;;18.97;13.20;;;10.40;99.90;;;;;;5033749;28;20197;-47
2023/04/19 02:04:17;;;;;;;15.57;12.53;;;10.40;99.90;;;;;;5033668;28;20184;-46
2023/04/19 02:06:42;;;;;;;16.63;13.37;;;10.40;99.90;;;;;;5033625;28;20648;-48
2023/04/19 02:09:08;;;;;;;17.47;13.20;;;10.40;99.90;;;;;;5033469;28;20180;-47
2023/04/19 02:11:33;;;;;;;16.27;13.07;;;10.40;99.90;;;;;;5033470;28;20232;-48
2023/04/19 02:13:59;;;;;;;19.67;13.27;;;10.40;99.90;;;;;;5015563;28;20615;-47
2023/04/19 02:16:25;;;;;;;22.03;14.10;;;10.40;99.90;;;;;;5033481;28;20183;-48
2023/04/19 02:18:50;;;;;;;16.47;12.50;;;10.50;99.90;;;;;;5033576;28;20188;-46
2023/04/19 02:21:16;;;;;;;16.10;12.70;;;10.40;99.90;;;;;;5033378;28;20704;-48
2023/04/19 02:23:42;;;;;;;20.20;12.90;;;10.40;99.90;;;;;;5033162;28;20180;-47
2023/04/19 02:26:07;;;;;;;18.37;13.07;;;10.40;99.90;;;;;;5033168;28;20656;-49
2023/04/19 02:28:33;;;;;;;17.07;13.33;;;10.30;99.90;;;;;;5033412;28;20700;-48
2023/04/19 02:31:02;;;;;;;19.43;13.00;;;10.30;99.90;;;;;;5033182;28;20180;-48
2023/04/19 02:33:28;;;;;;;17.90;13.57;;;10.20;99.90;;;;;;5033123;28;20209;-47
2023/04/19 02:35:53;;;;;;;17.40;12.20;;;10.20;99.90;;;;;;5033421;28;20188;-46
2023/04/19 02:38:19;;;;;;;19.60;13.73;;;10.20;99.90;;;;;;5033058;28;20169;-47
2023/04/19 02:40:44;;;;;;;15.90;12.13;;;10.10;99.90;;;;;;5033389;28;20226;-47
2023/04/19 02:43:10;;;;;;;19.97;14.47;;;10.10;99.90;;;;;;5032979;28;20197;-47
2023/04/19 02:45:36;;;;;;;18.23;13.50;;;10.10;99.90;;;;;;5033022;28;20188;-47
2023/04/19 02:48:01;;;;;;;15.97;13.20;;;10.10;99.90;;;;;;5032953;28;20185;-48
2023/04/19 02:50:27;;;;;;;21.00;13.57;;;10.00;99.90;;;;;;5034128;28;20194;-48
2023/04/19 02:52:56;;;;;;;19.37;13.70;;;10.00;99.90;;;;;;5036896;28;20191;-48
2023/04/19 02:55:22;;;;;;;16.90;13.27;;;10.00;99.90;;;;;;5037042;28;20215;-47
2023/04/19 02:57:47;;;;;;;20.33;14.17;;;10.00;99.90;;;;;;5036784;28;20188;-49
2023/04/19 03:00:13;;;;;;;18.17;13.53;;;10.00;99.90;;;;;;5037302;28;20200;-48
2023/04/19 03:02:40;;;;;;;20.27;13.90;;;10.00;99.90;;;;;;5036908;28;20274;-48
2023/04/19 03:05:06;;;;;;;21.70;13.70;;;10.00;99.90;;;;;;5037047;28;20725;-47
2023/04/19 03:07:31;;;;;;;19.77;13.93;;;10.00;99.90;;;;;;5037080;28;20169;-49
2023/04/19 03:09:57;;;;;;;20.07;14.43;;;10.00;99.90;;;;;;5019308;28;20192;-48
2023/04/19 03:12:22;;;;;;;22.50;14.20;;;10.00;99.90;;;;;;5036494;28;20192;-48
2023/04/19 03:14:48;;;;;;;21.70;14.00;;;10.00;99.90;;;;;;5036702;28;20203;-46
2023/04/19 03:17:14;;;;;;;17.60;13.90;;;10.00;99.90;;;;;;5036718;28;20184;-47
2023/04/19 03:19:40;;;;;;;19.30;13.80;;;10.00;99.90;;;;;;5036467;28;20185;-47
2023/04/19 03:22:05;;;;;;;20.33;14.30;;;10.10;99.90;;;;;;5036629;28;20255;-47
2023/04/19 03:24:31;;;;;;;17.53;13.37;;;10.10;99.90;;;;;;5036449;28;20239;-46
2023/04/19 03:26:57;;;;;;;18.17;14.13;;;10.10;99.90;;;;;;5036825;28;20251;-47
2023/04/19 03:29:23;;;;;;;18.30;14.00;;;10.10;99.90;;;;;;5037059;28;20668;-48
2023/04/19 03:31:49;;;;;;;22.03;13.63;;;10.10;99.90;;;;;;5019745;28;20212;-47
2023/04/19 03:34:14;;;;;;;21.10;14.40;;;10.10;99.90;;;;;;5046302;28;20219;-46
2023/04/19 03:36:40;;;;;;;18.10;13.97;;;10.10;99.90;;;;;;5056753;28;20177;-47
2023/04/19 03:39:06;;;;;;;18.13;12.93;;;10.20;99.90;;;;;;5044165;28;20271;-47
2023/04/19 03:41:32;;;;;;;17.50;13.10;;;10.20;99.90;;;;;;5036439;28;20531;-48
2023/04/19 03:43:58;;;;;;;16.57;13.70;;;10.20;99.90;;;;;;5036265;28;20269;-48
2023/04/19 03:46:24;;;;;;;18.93;14.03;;;10.20;99.90;;;;;;5035890;28;20184;-46
2023/04/19 03:48:51;;;;;;;20.27;13.30;;;10.20;99.90;;;;;;5035747;28;20254;-47
2023/04/19 03:51:17;;;;;;;19.63;13.93;;;10.20;99.90;;;;;;5035998;28;20199;-48
2023/04/19 03:53:43;;;;;;;20.93;14.17;;;10.30;99.90;;;;;;5035594;28;20205;-46
2023/04/19 03:56:08;;;;;;;19.40;14.33;;;10.30;99.90;;;;;;5035692;28;20180;-46
2023/04/19 03:58:34;;;;;;;20.40;13.93;;;10.30;99.90;;;;;;5035911;28;20180;-47
2023/04/19 04:01:00;;;;;;;17.57;14.10;;;10.30;99.90;;;;;;5035629;28;20213;-47
2023/04/19 04:03:25;;;;;;;21.57;13.63;;;10.30;99.90;;;;;;5034520;28;20689;-47
2023/04/19 04:05:51;;;;;;;19.30;13.27;;;10.30;99.90;;;;;;5035565;28;20176;-47
2023/04/19 04:08:17;;;;;;;16.47;13.57;;;10.30;99.90;;;;;;5035380;28;20194;-48
2023/04/19 04:10:42;;;;;;;18.20;13.07;;;10.30;99.90;;;;;;5035468;28;20255;-46
2023/04/19 04:13:08;;;;;;;16.53;13.03;;;10.30;99.90;;;;;;5035527;28;20204;-47
2023/04/19 04:15:33;;;;;;;19.47;13.43;;;10.30;99.90;;;;;;5035635;28;20176;-48
2023/04/19 04:17:59;;;;;;;18.63;12.77;;;10.30;99.90;;;;;;5035320;28;20591;-47
2023/04/19 04:20:24;;;;;;;16.93;12.83;;;10.30;99.90;;;;;;5035607;28;20176;-46
2023/04/19 04:22:51;;;;;;;18.03;13.27;;;10.30;99.90;;;;;;5035118;28;20197;-46
2023/04/19 04:25:16;;;;;;;20.90;13.00;;;10.30;99.90;;;;;;5035157;28;20188;-47
2023/04/19 04:27:45;;;;;;;20.30;13.63;;;10.30;99.90;;;;;;5035201;28;20181;-47
2023/04/19 04:30:11;;;;;;;16.97;12.77;;;10.30;99.90;;;;;;5035132;28;20177;-47
2023/04/19 04:32:37;;;;;;;19.37;13.50;;;10.30;99.90;;;;;;5035502;28;20739;-48
2023/04/19 04:35:07;;;;;;;18.53;12.97;;;10.40;99.90;;;;;;5034973;28;20197;-47
2023/04/19 04:37:33;;;;;;;22.23;13.03;;;10.30;99.90;;;;;;5034850;28;20172;-48
2023/04/19 04:40:00;;;;;;;19.97;13.37;;;10.30;99.90;;;;;;5035248;28;20231;-47
2023/04/19 04:42:26;;;;;;;19.03;13.90;;;10.30;99.90;;;;;;5034802;28;20196;-47
2023/04/19 04:44:52;;;;;;;20.53;12.63;;;10.30;99.90;;;;;;5035090;28;20260;-47
2023/04/19 04:47:19;;;;;;;18.50;12.17;;;10.30;99.90;;;;;;5017192;28;20185;-47
2023/04/19 04:49:45;;;;;;;22.37;13.43;;;10.20;99.90;;;;;;5034600;28;20200;-49
2023/04/19 04:52:11;;;;;;;22.33;13.20;;;10.30;99.90;;;;;;5034754;28;20259;-47
2023/04/19 04:54:36;;;;;;;21.07;12.93;;;10.20;99.90;;;;;;5034760;28;20266;-47
2023/04/19 04:57:02;;;;;;;21.47;12.27;;;10.30;99.90;;;;;;5034976;28;20192;-48
2023/04/19 04:59:28;;;;;;;15.70;11.07;;;10.20;99.90;;;;;;5034503;28;20191;-48
2023/04/19 05:01:53;;;;;;;18.73;12.93;;;10.20;99.90;;;;;;5034435;28;20196;-47
2023/04/19 05:04:19;;;;;;;17.27;12.53;;;10.20;99.90;;;;;;5034686;28;20185;-50
2023/04/19 05:06:45;;;;;;;19.10;12.77;;;10.20;99.90;;;;;;5034578;28;20188;-47
2023/04/19 05:09:10;;;;;;;20.47;13.23;;;10.30;99.90;;;;;;5034687;28;20222;-47
2023/04/19 05:11:36;;;;;;;18.07;12.53;;;10.20;99.90;;;;;;5016480;28;20239;-48
2023/04/19 05:14:02;;;;;;;19.97;12.97;;;10.30;99.90;;;;;;5033764;28;20204;-47
2023/04/19 05:16:28;;;;;;;18.20;12.13;;;10.20;99.90;;;;;;5034179;28;20249;-49
2023/04/19 05:18:53;;;;;;;20.00;12.87;;;10.30;99.90;;;;;;5034200;28;20176;-46
2023/04/19 05:21:19;;;;;;;18.23;12.87;;;10.30;99.90;;;;;;5034022;28;20203;-47
2023/04/19 05:23:45;;;;;;;19.00;14.03;;;10.30;99.90;;;;;;5035076;28;20246;-48
2023/04/19 05:26:14;;;;;;;24.00;13.37;;;10.20;99.90;;;;;;5034118;28;20735;-48
2023/04/19 05:28:40;;;;;;;16.97;12.23;;;10.20;99.90;;;;;;5034273;28;20184;-48
2023/04/19 05:31:07;;;;;;;17.53;12.70;;;10.20;99.90;;;;;;5034255;28;20183;-47
2023/04/19 05:33:33;;;;;;;20.33;11.60;;;10.20;99.90;;;;;;5034243;28;20262;-47
2023/04/19 05:35:59;;;;;;;15.83;11.80;;;10.20;99.90;;;;;;5034255;28;20176;-48
2023/04/19 05:38:24;;;;;;;21.30;12.60;;;10.20;99.90;;;;;;5034182;28;20208;-47
2023/04/19 05:40:50;;;;;;;18.57;11.10;;;10.20;99.90;;;;;;5034159;28;20181;-47
2023/04/19 05:43:15;;;;;;;25.27;12.93;;;10.20;99.90;;;;;;5034700;28;20258;-47
2023/04/19 05:45:41;;;;;;;19.30;12.50;;;10.20;99.90;;;;;;5033953;28;20239;-46
2023/04/19 05:48:07;;;;;;;13.93;11.90;;;10.20;99.90;;;;;;5033770;28;20661;-47
2023/04/19 05:50:33;;;;;;;23.57;11.63;;;10.20;99.90;;;;;;5015960;28;20165;-46
2023/04/19 05:52:59;;;;;;;15.57;10.27;;;10.20;99.90;;;;;;5033478;28;20193;-47
2023/04/19 05:55:24;;;;;;;15.73;10.43;;;10.20;99.90;;;;;;5033477;28;20209;-48
2023/04/19 05:57:50;;;;;;;17.13;11.07;;;10.20;99.90;;;;;;5033699;28;20180;-46
2023/04/19 06:00:16;;;;;;;14.03;9.77;;;10.20;99.90;;;;;;5034065;28;20175;-47
2023/04/19 06:02:43;;;;;;;11.47;9.27;;;10.30;99.90;;;;;;5033656;28;20283;-48
2023/04/19 06:05:09;;;;;;;13.70;8.80;;;10.30;99.90;;;;;;5033881;28;20183;-47
2023/04/19 06:07:34;;;;;;;14.57;8.43;;;10.30;99.90;;;;;;5034067;28;20547;-47
2023/04/19 06:10:00;;;;;;;13.97;8.70;;;10.30;99.90;;;;;;5033929;28;20187;-47
2023/04/19 06:12:26;;;;;;;11.00;8.40;;;10.30;99.90;;;;;;5034156;28;20678;-47
2023/04/19 06:14:52;;;;;;;11.07;8.30;;;10.30;99.90;;;;;;5033955;28;20223;-46
2023/04/19 06:17:22;;;;;;;11.80;7.47;;;10.30;99.90;;;;;;5034022;28;20233;-47
2023/04/19 06:19:48;;;;;;;15.77;7.63;;;10.30;99.90;;;;;;5033580;28;20618;-48
2023/04/19 06:22:13;;;;;;;9.47;7.07;;;10.30;99.90;;;;;;5033455;28;20210;-46
2023/04/19 06:24:39;;;;;;;9.70;6.67;;;10.40;99.90;;;;;;5033487;28;20193;-46
2023/04/19 06:27:04;;;;;;;9.07;6.13;;;10.40;99.90;;;;;;5037424;28;20204;-46
2023/04/19 06:29:30;;;;;;;8.03;6.33;;;10.40;99.90;;;;;;5037500;28;20185;-46
2023/04/19 06:31:55;;;;;;;16.60;6.20;;;10.40;99.90;;;;;;5037272;28;20732;-47
2023/04/19 06:34:21;;;;;;;9.30;6.63;;;10.50;99.90;;;;;;5037483;28;20551;-48
2023/04/19 06:36:47;;;;;;;7.70;5.60;;;10.50;99.90;;;;;;5037525;28;20184;-47
2023/04/19 06:39:13;;;;;;;9.83;5.27;;;10.50;99.90;;;;;;5037469;28;20563;-46
2023/04/19 06:41:39;;;;;;;8.70;5.60;;;10.50;99.90;;;;;;5037344;28;20724;-48
2023/04/19 06:44:04;;;;;;;8.67;5.73;;;10.60;99.90;;;;;;5037299;28;20288;-48
2023/04/19 06:46:30;;;;;;;14.33;5.10;;;10.60;99.90;;;;;;5037426;28;20192;-47
2023/04/19 06:48:56;;;;;;;11.37;5.30;;;10.60;99.90;;;;;;5045895;28;20327;-47
2023/04/19 06:51:21;;;;;;;7.13;5.67;;;10.70;99.90;;;;;;5050847;28;20202;-47
2023/04/19 06:53:48;;;;;;;6.57;5.33;;;10.70;99.90;;;;;;5041051;28;20696;-47
2023/04/19 06:56:14;;;;;;;9.03;4.90;;;10.70;99.90;;;;;;5037022;28;20667;-47
2023/04/19 06:58:40;;;;;;;13.70;6.10;;;10.80;99.90;;;;;;5037105;28;20184;-47
2023/04/19 07:01:06;;;;;;;10.00;5.60;;;10.80;99.90;;;;;;5036872;28;20181;-48
2023/04/19 07:03:32;;;;;;;8.93;5.50;;;10.90;99.90;;;;;;5037021;28;20204;-48
2023/04/19 07:05:57;;;;;;;6.27;4.70;;;10.90;99.90;;;;;;5036933;28;20223;-49
2023/04/19 07:08:24;;;;;;;7.53;4.97;;;10.90;99.90;;;;;;5036863;28;20713;-46
2023/04/19 07:10:49;;;;;;;8.77;5.10;;;11.00;99.90;;;;;;5036599;28;20189;-48
2023/04/19 07:13:15;;;;;;;9.07;5.73;;;11.00;99.90;;;;;;5036610;28;20207;-47
2023/04/19 07:15:41;;;;;;;8.67;4.97;;;11.00;99.90;;;;;;5036514;28;20699;-47
2023/04/19 07:18:06;;;;;;;10.53;5.87;;;11.00;99.90;;;;;;5036732;28;20207;-48
2023/04/19 07:20:33;;;;;;;14.03;5.17;;;11.00;99.90;;;;;;5036703;28;20181;-48
2023/04/19 07:22:58;;;;;;;9.93;5.47;;;11.10;99.90;;;;;;5036270;28;20243;-48
2023/04/19 07:25:24;;;;;;;10.20;5.43;;;11.30;99.90;;;;;;5036386;28;20648;-48
2023/04/19 07:27:53;;;;;;;26.13;6.07;;;11.40;99.90;;;;;;5036527;28;20173;-47
2023/04/19 07:30:18;;;;;;;10.77;5.30;;;11.50;99.90;;;;;;5036588;28;20185;-48
2023/04/19 07:32:45;;;;;;;8.57;5.30;;;11.50;99.90;;;;;;5036084;28;20701;-49
2023/04/19 07:35:10;;;;;;;10.50;5.17;;;11.60;99.90;;;;;;5036238;28;20208;-46
2023/04/19 07:37:36;;;;;;;13.50;5.50;;;11.60;99.90;;;;;;5036143;28;20181;-51
2023/04/19 07:40:02;;;;;;;15.07;5.93;;;11.60;99.90;;;;;;5036311;28;20188;-49
2023/04/19 07:42:29;;;;;;;10.13;5.33;;;11.70;99.90;;;;;;5035968;28;20199;-49
2023/04/19 07:44:55;;;;;;;13.33;5.73;;;11.70;99.90;;;;;;5036250;28;20173;-49
2023/04/19 07:47:21;;;;;;;8.13;5.27;;;11.70;99.90;;;;;;5035884;28;20179;-47
2023/04/19 07:49:50;;;;;;;11.73;5.53;;;11.70;99.90;;;;;;5035906;28;20193;-49
2023/04/19 07:52:17;;;;;;;12.70;5.73;;;11.70;99.90;;;;;;5035797;28;20228;-49
2023/04/19 07:54:42;;;;;;;7.77;5.30;;;11.80;99.90;;;;;;5036349;28;20200;-50
2023/04/19 07:57:08;;;;;;;9.20;5.03;;;11.70;99.90;;;;;;5036033;28;20208;-49
2023/04/19 07:59:34;;;;;;;7.17;5.23;;;11.60;99.90;;;;;;5035873;28;20169;-49
2023/04/19 08:01:59;;;;;;;7.83;5.37;;;11.60;99.90;;;;;;5035615;28;20193;-49
2023/04/19 08:04:25;;;;;;;7.27;5.13;;;11.70;99.90;;;;;;5035641;28;20189;-49
2023/04/19 08:06:51;;;;;;;10.40;5.13;;;11.80;99.90;;;;;;5035794;28;20188;-48
2023/04/19 08:09:17;;;;;;;9.37;5.70;;;11.80;99.90;;;;;;5035732;28;20267;-48
2023/04/19 08:11:43;;;;;;;7.17;4.93;;;11.90;99.90;;;;;;5035841;28;20612;-49
2023/04/19 08:14:08;;;;;;;7.43;5.70;;;11.90;99.90;;;;;;5035513;28;20280;-48
2023/04/19 08:16:34;;;;;;;7.37;4.37;;;12.00;99.90;;;;;;5036429;28;20177;-47
2023/04/19 08:19:00;;;;;;;8.47;5.13;;;12.10;99.90;;;;;;5035692;28;20218;-48
2023/04/19 08:21:25;;;;;;;9.90;5.10;;;12.10;99.90;;;;;;5035466;28;20198;-46
2023/04/19 08:23:51;;;;;;;8.17;4.93;;;12.20;99.90;;;;;;5017677;28;20177;-48
2023/04/19 08:26:17;;;;;;;9.70;5.93;;;12.20;99.90;;;;;;5035415;28;20649;-48
2023/04/19 08:28:42;;;;;;;9.70;5.47;;;12.30;99.90;;;;;;5035165;28;20183;-48
2023/04/19 08:31:09;;;;;;;8.63;5.90;;;12.30;99.90;;;;;;5035269;28;20190;-49
2023/04/19 08:33:34;;;;;;;9.10;6.33;;;12.40;99.90;;;;;;5035263;28;20212;-47
2023/04/19 08:36:00;;;;;;;7.97;5.50;;;12.40;99.90;;;;;;5017286;28;20238;-49
2023/04/19 08:38:26;;;;;;;9.47;6.80;;;12.40;99.90;;;;;;5035075;28;20625;-50
2023/04/19 08:40:53;;;;;;;7.30;5.97;;;12.50;99.90;;;;;;5034934;28;20177;-49
2023/04/19 08:43:20;;;;;;;9.23;5.63;;;12.50;99.90;;;;;;5035014;28;20540;-48
2023/04/19 08:45:49;;;;;;;7.30;5.83;;;12.60;99.90;;;;;;5034841;28;20184;-49
2023/04/19 08:48:16;;;;;;;7.67;5.93;;;12.70;99.90;;;;;;5034079;28;20197;-48
2023/04/19 08:50:44;;;;;;;5.93;5.27;;;12.70;99.90;;;;;;5034653;28;20185;-49
2023/04/19 08:53:10;;;;;;;10.80;5.87;;;12.80;99.90;;;;;;5034875;28;20197;-48
2023/04/19 08:55:37;;;;;;;10.17;5.17;;;13.00;99.90;;;;;;5034828;28;20589;-48
2023/04/19 08:58:03;;;;;;;9.57;5.83;;;13.00;99.90;;;;;;5034867;28;20184;-48
2023/04/19 09:00:36;;;;;;;10.70;5.40;;;13.00;99.90;;;;;;5035042;28;20183;-48
2023/04/19 09:03:02;;;;;;;8.67;5.03;;;13.00;99.90;;;;;;5034509;28;20594;-48
2023/04/19 09:05:28;;;;;;;7.40;5.03;;;13.00;99.90;;;;;;5034700;28;20184;-48
2023/04/19 09:07:53;;;;;;;11.33;3.87;;;13.10;99.90;;;;;;5034629;28;20181;-49
2023/04/19 09:10:20;;;;;;;8.00;4.77;;;13.20;99.90;;;;;;5034410;28;20295;-47
2023/04/19 09:13:04;;;;;;;15.43;5.60;;;13.20;99.90;;;;;;5016525;28;20205;-48
2023/04/19 09:15:40;;;;;;;12.57;5.63;;;13.30;99.90;;;;;;5034104;28;20239;-48
2023/04/19 09:18:09;;;;;;;7.07;5.10;;;13.40;99.90;;;;;;5034488;28;20260;-47
2023/04/19 09:20:44;;;;;;;8.53;4.67;;;13.40;99.90;;;;;;5034161;28;20177;-48
2023/04/19 09:23:13;;;;;;;7.70;4.63;;;13.60;99.90;;;;;;5034133;28;20188;-49
2023/04/19 09:26:03;;;;;;;8.60;4.53;;;13.70;99.90;;;;;;5034304;28;20181;-48
2023/04/19 09:28:30;;;;;;;8.73;4.70;;;13.70;99.90;;;;;;5034351;28;20165;-48
2023/04/19 09:30:56;;;;;;;8.33;4.93;;;13.70;99.90;;;;;;5033925;28;20668;-48
2023/04/19 09:33:34;;;;;;;25.37;5.10;;;13.70;99.90;;;;;;5033715;28;20201;-52
2023/04/19 09:36:00;;;;;;;6.90;4.00;;;13.60;99.90;;;;;;5034210;28;20184;-49
2023/04/19 09:38:26;;;;;;;9.93;4.43;;;13.60;99.90;;;;;;5034143;28;20263;-48
2023/04/19 09:41:04;;;;;;;13.90;4.30;;;13.50;99.90;;;;;;5034384;28;20668;-49
2023/04/19 09:43:29;;;;;;;9.77;3.87;;;13.50;99.90;;;;;;5033680;28;20195;-48
2023/04/19 09:45:55;;;;;;;16.40;4.27;;;13.60;99.90;;;;;;5033708;28;20181;-50
2023/04/19 09:48:22;;;;;;;8.03;3.80;;;13.60;99.90;;;;;;5033602;28;20267;-49
2023/04/19 09:50:59;;;;;;;7.03;3.90;;;13.70;99.90;;;;;;5033940;28;20189;-49
2023/04/19 09:53:26;;;;;;;5.87;3.83;;;13.60;99.90;;;;;;5033746;28;20196;-48
2023/04/19 09:55:52;;;;;;;8.63;4.33;;;13.60;99.90;;;;;;5033899;28;20195;-48
2023/04/19 09:58:19;;;;;;;10.43;3.90;;;13.70;99.90;;;;;;5033575;28;20588;-49
2023/04/19 10:00:46;;;;;;;12.37;4.20;;;13.70;99.90;;;;;;5033714;28;20599;-49
2023/04/19 10:03:14;;;;;;;6.50;3.37;;;13.70;99.90;;;;;;5033388;28;20680;-49
2023/04/19 10:05:41;;;;;;;8.43;3.63;;;13.80;99.90;;;;;;5033752;28;20180;-49
2023/04/19 10:08:08;;;;;;;17.03;4.03;;;13.80;99.90;;;;;;5033425;28;20172;-50
2023/04/19 10:10:33;;;;;;;13.30;3.57;;;13.70;99.90;;;;;;5033675;28;20169;-49
2023/04/19 10:13:02;;;;;;;6.83;3.30;;;13.60;99.90;;;;;;5015667;28;20263;-49
2023/04/19 10:15:29;;;;;;;14.17;3.50;;;13.50;99.90;;;;;;5033811;28;20205;-49
2023/04/19 10:17:55;;;;;;;17.10;3.77;;;13.50;99.90;;;;;;5033313;28;20724;-49
2023/04/19 10:20:36;;;;;;;15.37;3.67;;;13.50;99.90;;;;;;5034125;28;20524;-47
2023/04/19 10:23:02;;;;;;;5.13;2.90;;;13.60;99.90;;;;;;5033211;28;20193;-49
2023/04/19 10:25:30;;;;;;;7.17;3.27;;;13.70;99.90;;;;;;5033257;28;20185;-49
2023/04/19 10:27:57;;;;;;;6.77;3.30;;;13.70;99.90;;;;;;5033196;28;20303;-50
2023/04/19 10:30:25;;;;;;;5.17;3.40;;;13.80;99.90;;;;;;5033276;28;20286;-48
2023/04/19 10:32:54;;;;;;;10.00;2.93;;;13.70;99.90;;;;;;5033429;28;20197;-49
2023/04/19 10:35:23;;;;;;;14.33;3.20;;;13.70;99.90;;;;;;5033646;28;20208;-49
2023/04/19 10:38:01;;;;;;;6.83;3.10;;;13.60;99.90;;;;;;5039047;28;20181;-48
2023/04/19 10:40:56;;;;;;;4.80;3.13;;;13.70;99.90;;;;;;5039084;28;20184;-49
2023/04/19 10:43:46;;;;;;;5.43;2.43;;;13.80;99.90;;;;;;5033484;28;20735;-48
2023/04/19 10:46:21;;;;;;;6.37;2.97;;;13.90;99.90;;;;;;5033408;28;20173;-50
2023/04/19 10:48:54;;;;;;;5.33;3.03;;;14.00;99.90;;;;;;5032973;28;20664;-49
2023/04/19 10:51:35;;;;;;;7.03;3.13;;;14.10;99.90;;;;;;5033168;28;20231;-49
2023/04/19 10:54:06;;;;;;;9.33;3.07;;;14.30;99.90;;;;;;5033191;28;20244;-50
2023/04/19 10:56:31;;;;;;;10.30;3.13;;;14.30;99.90;;;;;;5033218;28;20185;-48
2023/04/19 11:01:36;;;;;;;5.67;2.70;;;14.20;99.90;;;;;;5033124;28;20215;-48
2023/04/19 11:04:02;;;;;;;6.70;2.80;;;14.10;99.90;;;;;;5033269;28;20177;-48
2023/04/19 11:06:28;;;;;;;3.57;2.40;;;14.10;99.90;;;;;;5033143;28;20551;-49
2023/04/19 11:08:54;;;;;;;10.00;3.57;;;14.20;99.90;;;;;;5032841;28;20177;-49
2023/04/19 11:11:20;;;;;;;6.70;2.80;;;14.20;99.90;;;;;;5033316;28;20595;-50
2023/04/19 11:13:49;;;;;;;4.77;2.17;;;14.20;99.90;;;;;;5036749;28;20547;-48
2023/04/19 11:16:15;;;;;;;11.30;2.63;;;14.20;99.90;;;;;;5036765;28;20809;-49
2023/04/19 11:18:40;;;;;;;8.53;2.70;;;14.30;99.90;;;;;;5036442;28;20267;-49
2023/04/19 11:21:06;;;;;;;3.83;2.03;;;14.40;99.90;;;;;;5036472;28;20180;-49
2023/04/19 11:23:31;;;;;;;11.60;2.93;;;14.50;99.90;;;;;;5036269;28;20282;-49
2023/04/19 11:25:57;;;;;;;2.83;2.10;;;14.40;99.90;;;;;;5036602;28;20189;-48
2023/04/19 11:28:23;;;;;;;9.63;2.80;;;14.40;99.90;;;;;;5036597;28;20589;-49
2023/04/19 11:30:49;;;;;;;3.93;2.20;;;14.40;99.90;;;;;;5036303;28;20181;-50
2023/04/19 11:33:23;;;;;;;4.47;2.30;;;14.40;99.70;;;;;;5036244;28;20227;-50
2023/04/19 11:35:49;;;;;;;3.30;2.00;;;14.40;99.90;;;;;;5036264;28;20161;-49
2023/04/19 11:38:15;;;;;;;6.63;1.90;;;14.40;99.90;;;;;;5036425;28;20544;-49
2023/04/19 11:40:41;;;;;;;10.93;2.00;;;14.50;98.70;;;;;;5036335;28;20177;-50
2023/04/19 11:43:06;;;;;;;6.83;2.20;;;14.50;99.20;;;;;;5036060;28;20583;-49
2023/04/19 11:45:35;;;;;;;6.07;1.73;;;14.50;98.80;;;;;;5036583;28;20204;-49
2023/04/19 11:48:02;;;;;;;5.83;1.67;;;14.40;97.50;;;;;;5018381;28;20258;-49
2023/04/19 11:50:41;;;;;;;4.27;1.70;;;14.30;98.50;;;;;;5035913;28;20181;-49
2023/04/19 11:53:11;;;;;;;5.03;2.20;;;14.40;97.80;;;;;;5036996;28;20192;-50
2023/04/19 11:55:37;;;;;;;9.53;2.10;;;14.40;97.40;;;;;;5036092;28;20185;-49
2023/04/19 11:58:05;;;;;;;8.53;2.00;;;14.40;97.20;;;;;;5035916;28;20192;-49
2023/04/19 12:00:30;;;;;;;7.50;1.97;;;14.40;96.50;;;;;;5036209;28;20183;-49
2023/04/19 12:02:56;;;;;;;8.73;2.10;;;14.50;96.90;;;;;;5035690;28;20189;-49
2023/04/19 12:05:22;;;;;;;4.77;2.00;;;14.50;95.40;;;;;;5036289;28;20644;-48
2023/04/19 12:08:17;;;;;;;2.80;1.77;;;14.50;96.30;;;;;;5036392;28;20661;-48
2023/04/19 12:11:04;;;;;;;6.47;1.87;;;14.40;96.80;;;;;;5019262;28;20683;-48
2023/04/19 12:13:30;;;;;;;8.17;2.20;;;14.30;96.00;;;;;;5035376;28;20724;-47
2023/04/19 12:15:56;;;;;;;8.83;2.63;;;14.30;96.80;;;;;;5035625;28;20191;-49
2023/04/19 12:18:22;;;;;;;8.73;2.37;;;14.30;96.00;;;;;;5035417;28;20177;-47
2023/04/19 12:20:50;;;;;;;4.77;2.43;;;14.40;96.10;;;;;;5035575;28;20189;-49
2023/04/19 12:23:17;;;;;;;5.23;2.30;;;14.50;96.40;;;;;;5034342;28;20201;-48
2023/04/19 12:25:45;;;;;;;11.00;3.00;;;14.40;95.50;;;;;;5035354;28;20185;-47
2023/04/19 12:28:12;;;;;;;8.43;3.00;;;14.50;94.50;;;;;;5017389;28;20216;-48
2023/04/19 12:30:38;;;;;;;8.87;2.50;;;14.50;95.50;;;;;;5035111;28;20653;-48
2023/04/19 12:33:05;;;;;;;4.13;2.27;;;14.60;95.30;;;;;;5035257;28;20239;-48
2023/04/19 12:35:31;;;;;;;5.90;2.40;;;14.70;96.20;;;;;;5035826;28;20554;-47